Aérodrome :
LOGIN :

S'inscrire | Disclaimer

   EN    FR    IT 

 










Légende :    VFR   VFR Marginal   IFR   IFR Intensif   IFR Très Intensif
Visi : 
Plafond : 
>= 8 km
>= 3000ft
5 à 8 km
1000 à 3000 ft
1500m à 5 km
500 à 1000 ft
800 à 1500m
200 à 500 ft
< 800m
< 200 ft
Symboles :   Orages  Brouillard  Fortes neiges  Fortes précipitations  Vent > 20 kt
SIGMETs :   Divers  Orages  Givrage  Turbulence  Onde Orograph.  Cendres Volcan.







- Altitude de l'aérodrome : 510 ft


LJCE - Cerklje

DERNIER METAR :
  • 200130Z AUTO VRB02KT 9000 RA FEW027/// OVC069/// 15/14 Q1020 RERA

METARs EXPIRÉS :
  • 200100Z AUTO VRB01KT 9999 RA BKN025/// OVC068/// 15/14 Q1020 RERA
  • 200030Z AUTO 24005KT 4500 +RA OVC021/// 16/15 Q1020
  • 200000Z AUTO 10004KT 070V140 9999 -RA SCT018/// OVC046/// 16/14 Q1019 RERA
  • 192330Z AUTO 09006KT 040V130 9999 RA SCT024/// BKN047/// OVC092/// 16/14 Q1019
  • 192300Z AUTO 09007KT 060V170 9999 RA BKN010/// OVC100/// 16/15 Q1020 RERA

TAF TAF LJCE
Valide du 20 à 00h jusqu'au 20 à 09h UTC


192300Z 2000/2009 03010G25KT 7000 RA BKN025 OVC060
BECMG 2000/2003 09005KT
BECMG 2006/2009 9999 NSW FEW030 SCT060
Pas de NOTAMs connus pour ce terrain.
2 SIGMETs publiés pour la FIR Ljubljana (LJLA) :
 
Turbulence forte
LJLA SIGMET 8 VALID 192330/200200 LJLJ
LJLA LJUBLJANA FIR SEV TURB FCST SW OF LINE N46 E01330 - N4535 E01430 SFC/5000FT STNR NC=
Orages noyés dans la masse
LJLA SIGMET 1 VALID 200100/200200 LJLJ
LJLA LJUBLJANA FIR EMBD TS OBS S OF N4611 AND E OF E01506 TOP FL360 MOV E 05KT WKN=



MET'MAP, la Météo Aéronautique d'un coup d'oeil ! - Copyright ORBIFLY Décembre 2007 - Disclaimer

ORBIFLY MET'MAP TEAM :

Programmation & Développement : Alexandra Zaïnal
Conception & Développement : Baudouin d'Aumeries
Co-Programmation & Développement : Marc-Olivier Méhu
Soutien technique & logistique : Manuel Goepfert

Contact : metmap@orbifly.com




SOURCES & CREDITS :

   NOAA